Beargrass, North Carolina
Current Conditions -  °F | °C
As of 8:35 PM on Monday 24 Nov 2014 (Local Time) from KOCW Reporting Station
Overcast Overcast  
Wind Chill: 68°   Ceiling: 8500
Heat Index: 68°   Visibility: 10mi
Dew Point: 62°   Wind: 10mph
Humidity: 82%   Direction: 230°SW
Pressure: 29.94"   Gusts: NA
Location:  35.7282°N, 77.0495°W
Report Text: KOCW 250135Z AUTO 23009KT 10SM SCT075 OVC085 20/17 A2994 RMK AO2 T02000168
Loading
Personal Weather Stations






























Interactive Weather Map New forecast layout! Learn more

10-Day Weather Forecast

Advertisements
Track Severe Weather on mobile